Time;durP1;ratioP1;P1;durP2;ratioP2;P2;SDS_P1;SDS_P2;PMS_P1;PMS_P2;Temp;Humidity;BMP_temperature;BMP_pressure;BME280_temperature;BME280_humidity;BME280_pressure;Samples;Min_cycle;Max_cycle;Signal;HPM_P1;HPM_P2
2021/12/15 00:02:00;;;;;;;59.37;34.20;;;9.60;99.90;;;;;;637436;225;26577;-79
2021/12/15 00:04:25;;;;;;;58.03;34.17;;;9.80;99.90;;;;;;637341;226;26581;-79
2021/12/15 00:06:52;;;;;;;60.23;34.57;;;10.00;99.90;;;;;;637425;221;26564;-79
2021/12/15 00:09:19;;;;;;;57.53;33.33;;;10.00;99.90;;;;;;637420;226;26555;-79
2021/12/15 00:11:47;;;;;;;60.73;33.87;;;10.10;99.90;;;;;;637438;226;26555;-79
2021/12/15 00:14:16;;;;;;;60.30;35.23;;;10.20;99.90;;;;;;637440;226;26568;-79
2021/12/15 00:16:43;;;;;;;58.70;32.70;;;10.20;99.90;;;;;;637411;225;26795;-79
2021/12/15 00:19:10;;;;;;;57.37;33.83;;;9.80;99.90;;;;;;637420;226;26592;-79
2021/12/15 00:21:37;;;;;;;61.03;34.63;;;9.70;99.90;;;;;;637430;226;26832;-79
2021/12/15 00:24:05;;;;;;;63.53;36.00;;;9.60;99.90;;;;;;637414;225;26581;-79
2021/12/15 00:26:33;;;;;;;59.77;34.40;;;9.60;99.90;;;;;;638337;223;26538;-79
2021/12/15 00:29:02;;;;;;;58.63;35.33;;;9.60;99.90;;;;;;639325;225;26573;-79
2021/12/15 00:31:32;;;;;;;59.90;34.60;;;9.60;99.90;;;;;;638942;225;26492;-79
2021/12/15 00:33:56;;;;;;;56.93;34.13;;;9.70;99.90;;;;;;638543;225;26498;-79
2021/12/15 00:36:23;;;;;;;58.70;32.83;;;9.90;99.90;;;;;;638600;225;26532;-79
2021/12/15 00:38:50;;;;;;;60.87;32.77;;;9.60;99.90;;;;;;638457;225;26553;-79
2021/12/15 00:41:17;;;;;;;55.10;33.50;;;9.70;99.90;;;;;;638481;225;26739;-79
2021/12/15 00:43:45;;;;;;;56.50;32.37;;;9.90;99.90;;;;;;638472;225;26483;-79
2021/12/15 00:46:12;;;;;;;61.30;33.40;;;9.90;99.90;;;;;;638173;225;26748;-79
2021/12/15 00:48:40;;;;;;;54.50;33.20;;;9.80;99.90;;;;;;638135;225;26482;-79
2021/12/15 00:51:06;;;;;;;53.10;32.00;;;9.90;99.90;;;;;;638066;225;26800;-79
2021/12/15 00:53:34;;;;;;;53.40;32.60;;;10.20;99.90;;;;;;637807;225;26496;-79
2021/12/15 00:56:01;;;;;;;60.97;32.33;;;10.20;99.90;;;;;;637717;225;26533;-79
2021/12/15 00:58:29;;;;;;;53.17;31.37;;;9.90;99.90;;;;;;637692;225;26801;-80
2021/12/15 01:00:56;;;;;;;50.70;30.23;;;10.20;99.90;;;;;;637752;225;26536;-79
2021/12/15 01:03:23;;;;;;;56.17;33.83;;;10.10;99.90;;;;;;637440;225;26798;-79
2021/12/15 01:05:51;;;;;;;54.07;32.27;;;10.10;99.90;;;;;;637413;226;26525;-79
2021/12/15 01:08:19;;;;;;;52.20;30.33;;;10.10;99.90;;;;;;637252;226;26541;-79
2021/12/15 01:11:00;;;;;;;56.73;32.50;;;10.20;99.90;;;;;;637280;226;26819;-79
2021/12/15 01:20:52;;;;;;;59.73;32.67;;;10.00;99.90;;;;;;637548;226;26595;-79
2021/12/15 01:23:19;;;;;;;57.63;32.40;;;10.00;99.90;;;;;;637514;226;26566;-79
2021/12/15 01:25:47;;;;;;;62.40;32.77;;;9.90;99.90;;;;;;637055;226;26565;-79
2021/12/15 01:28:14;;;;;;;61.87;32.43;;;9.90;99.90;;;;;;637376;226;26572;-79
2021/12/15 01:30:42;;;;;;;61.00;32.87;;;9.90;99.90;;;;;;637458;226;26594;-79
2021/12/15 01:33:10;;;;;;;59.67;31.77;;;9.90;99.90;;;;;;637377;226;26577;-79
2021/12/15 01:35:38;;;;;;;62.63;33.10;;;9.70;99.90;;;;;;637469;226;26540;-79
2021/12/15 01:38:05;;;;;;;57.33;31.33;;;9.70;99.90;;;;;;637909;223;26552;-79
2021/12/15 01:40:35;;;;;;;56.37;32.17;;;9.80;99.90;;;;;;638970;225;26812;-79
2021/12/15 01:43:02;;;;;;;58.93;32.03;;;9.80;99.90;;;;;;638294;225;26513;-79
2021/12/15 01:48:05;;;;;;;59.23;32.50;;;9.70;99.90;;;;;;638206;225;26512;-79
2021/12/15 01:50:32;;;;;;;55.27;31.57;;;9.50;99.90;;;;;;637932;225;27248;-79
2021/12/15 01:52:59;;;;;;;57.27;32.77;;;9.70;99.90;;;;;;638086;225;26546;-79
2021/12/15 01:55:27;;;;;;;59.53;33.27;;;9.80;99.90;;;;;;638068;225;26876;-79
2021/12/15 01:57:55;;;;;;;56.13;32.17;;;10.00;99.90;;;;;;637724;221;26601;-79
2021/12/15 02:00:24;;;;;;;53.20;32.57;;;10.30;99.90;;;;;;637723;225;26604;-79
2021/12/15 02:02:52;;;;;;;56.47;31.47;;;10.50;99.90;;;;;;637534;225;26560;-79
2021/12/15 02:05:19;;;;;;;52.30;31.27;;;10.50;99.90;;;;;;638104;225;26507;-79
2021/12/15 02:07:47;;;;;;;50.27;29.90;;;10.80;99.90;;;;;;638117;225;26496;-79
2021/12/15 02:10:15;;;;;;;55.30;31.50;;;10.50;99.90;;;;;;637978;225;26539;-79
2021/12/15 02:12:43;;;;;;;51.00;31.87;;;10.30;99.90;;;;;;646552;222;26507;-78
2021/12/15 02:15:14;;;;;;;47.83;28.40;;;10.10;99.90;;;;;;648360;222;26566;-79
2021/12/15 02:17:41;;;;;;;48.13;28.37;;;10.10;99.90;;;;;;646070;221;26563;-76
2021/12/15 02:20:10;;;;;;;51.30;28.67;;;9.80;99.90;;;;;;647124;222;26607;-76
2021/12/15 02:22:37;;;;;;;57.53;30.70;;;9.80;99.90;;;;;;647104;222;26535;-76
2021/12/15 02:25:10;;;;;;;47.63;29.83;;;9.80;99.90;;;;;;647230;222;26516;-76
2021/12/15 02:27:35;;;;;;;46.83;28.50;;;9.90;99.90;;;;;;647078;222;26495;-76
2021/12/15 02:30:17;;;;;;;52.23;28.60;;;9.80;99.90;;;;;;647166;222;27054;-76
2021/12/15 02:32:50;;;;;;;47.63;28.30;;;9.80;99.90;;;;;;645575;222;26520;-76
2021/12/15 02:37:38;;;;;;;45.90;27.90;;;9.60;99.90;;;;;;647248;222;26480;-76
2021/12/15 02:40:09;;;;;;;45.20;27.27;;;9.60;99.90;;;;;;647253;222;26591;-76
2021/12/15 02:42:34;;;;;;;49.73;28.30;;;9.50;99.90;;;;;;647005;220;26531;-76
2021/12/15 02:45:02;;;;;;;48.03;27.23;;;9.70;99.90;;;;;;647105;222;26520;-76
2021/12/15 02:47:30;;;;;;;48.13;28.70;;;10.00;99.90;;;;;;647105;222;26538;-76
2021/12/15 02:49:58;;;;;;;47.43;27.27;;;10.30;99.90;;;;;;647920;219;26597;-76
2021/12/15 02:52:26;;;;;;;43.07;26.40;;;10.30;99.90;;;;;;648735;221;26511;-76
2021/12/15 02:54:54;;;;;;;47.13;27.10;;;10.10;99.90;;;;;;648409;222;26582;-76
2021/12/15 02:57:22;;;;;;;43.43;25.47;;;10.20;99.90;;;;;;648255;222;26510;-76
2021/12/15 02:59:59;;;;;;;42.27;26.23;;;10.20;99.90;;;;;;647982;217;26538;-76
2021/12/15 03:02:46;;;;;;;44.00;25.50;;;10.20;99.90;;;;;;647353;220;26554;-76
2021/12/15 03:05:00;;;;;;;43.07;25.30;;;10.40;99.90;;;;;;646003;222;26567;-76
2021/12/15 03:07:27;;;;;;;41.80;25.63;;;10.40;99.90;;;;;;646813;222;26506;-76
2021/12/15 03:17:27;;;;;;;43.97;25.03;;;10.00;99.90;;;;;;647586;222;26537;-76
2021/12/15 03:19:55;;;;;;;40.23;26.17;;;9.40;99.90;;;;;;647532;222;26635;-76
2021/12/15 03:22:23;;;;;;;43.40;26.40;;;9.40;99.90;;;;;;647605;222;26596;-76
2021/12/15 03:24:50;;;;;;;42.83;25.77;;;9.40;99.90;;;;;;647543;222;26565;-76
2021/12/15 03:27:23;;;;;;;43.60;26.40;;;9.50;99.90;;;;;;647271;222;26497;-76
2021/12/15 03:35:05;;;;;;;42.00;25.53;;;9.70;99.90;;;;;;647256;222;26989;-76
2021/12/15 03:37:23;;;;;;;43.70;25.50;;;9.50;99.90;;;;;;645876;222;26510;-76
2021/12/15 03:39:51;;;;;;;41.60;24.57;;;9.60;99.90;;;;;;647233;222;26547;-76
2021/12/15 03:42:19;;;;;;;42.30;26.83;;;9.60;99.90;;;;;;647140;222;26519;-76
2021/12/15 03:44:45;;;;;;;45.10;27.40;;;9.70;99.90;;;;;;647223;222;26750;-76
2021/12/15 03:47:13;;;;;;;41.47;25.63;;;9.90;99.90;;;;;;647270;220;26524;-76
2021/12/15 03:49:40;;;;;;;41.87;26.37;;;10.00;99.90;;;;;;647120;222;26823;-76
2021/12/15 03:52:07;;;;;;;43.53;27.33;;;9.90;99.90;;;;;;647267;220;26767;-77
2021/12/15 03:54:34;;;;;;;43.07;27.03;;;9.80;99.90;;;;;;647256;222;26766;-76
2021/12/15 03:57:01;;;;;;;41.90;26.60;;;10.00;99.90;;;;;;647231;218;26523;-76
2021/12/15 03:59:29;;;;;;;44.03;26.97;;;10.20;99.90;;;;;;647184;220;26499;-76
2021/12/15 04:01:56;;;;;;;43.10;25.73;;;10.00;99.90;;;;;;648356;220;26797;-76
2021/12/15 04:04:23;;;;;;;44.97;26.17;;;9.90;99.90;;;;;;648695;222;26527;-76
2021/12/15 04:06:50;;;;;;;42.73;25.67;;;9.90;99.90;;;;;;648328;222;26808;-76
2021/12/15 04:09:17;;;;;;;44.23;26.13;;;9.90;99.90;;;;;;648183;220;26794;-76
2021/12/15 04:11:45;;;;;;;38.50;24.37;;;10.10;99.90;;;;;;647965;222;26521;-76
2021/12/15 04:14:18;;;;;;;42.43;27.67;;;10.20;99.90;;;;;;647927;222;26530;-76
2021/12/15 04:16:45;;;;;;;40.27;25.37;;;10.40;99.90;;;;;;647726;222;26494;-76
2021/12/15 04:19:09;;;;;;;41.30;25.30;;;10.40;99.90;;;;;;648011;222;26504;-76
2021/12/15 04:21:36;;;;;;;40.83;25.10;;;9.80;99.90;;;;;;647772;222;26535;-76
2021/12/15 04:24:03;;;;;;;43.87;26.13;;;9.80;99.90;;;;;;648022;222;26532;-76
2021/12/15 04:26:30;;;;;;;38.20;25.07;;;10.10;99.90;;;;;;647782;222;26581;-76
2021/12/15 04:28:58;;;;;;;42.03;25.97;;;10.40;99.90;;;;;;647423;222;26614;-76
2021/12/15 04:31:25;;;;;;;40.80;25.50;;;10.60;99.90;;;;;;647388;222;26813;-76
2021/12/15 04:33:54;;;;;;;43.80;25.40;;;10.50;99.90;;;;;;647295;222;26597;-76
2021/12/15 04:36:19;;;;;;;35.53;25.53;;;10.20;99.90;;;;;;647179;220;27264;-77
2021/12/15 04:38:46;;;;;;;37.60;24.97;;;9.90;99.90;;;;;;647257;222;26603;-77
2021/12/15 04:41:16;;;;;;;38.33;25.20;;;9.80;99.90;;;;;;647276;222;26504;-77
2021/12/15 04:43:41;;;;;;;38.20;23.80;;;10.10;99.90;;;;;;647187;222;26524;-76
2021/12/15 04:46:09;;;;;;;38.57;24.50;;;10.00;99.90;;;;;;647394;222;26516;-77
2021/12/15 04:48:37;;;;;;;35.97;23.10;;;9.80;99.90;;;;;;647243;222;26545;-77
2021/12/15 04:51:05;;;;;;;37.83;24.63;;;9.80;99.90;;;;;;647202;222;26528;-77
2021/12/15 04:53:33;;;;;;;38.63;24.13;;;10.00;99.90;;;;;;647367;222;26482;-77
2021/12/15 04:56:01;;;;;;;38.13;23.40;;;9.60;99.90;;;;;;647189;222;26502;-77
2021/12/15 04:58:29;;;;;;;37.30;23.63;;;9.40;99.90;;;;;;647339;222;26519;-77
2021/12/15 05:00:56;;;;;;;37.60;23.23;;;9.40;99.90;;;;;;647344;218;26523;-77
2021/12/15 05:03:23;;;;;;;35.33;23.13;;;9.50;99.90;;;;;;647083;222;26742;-77
2021/12/15 05:05:50;;;;;;;34.53;22.97;;;9.50;99.90;;;;;;647168;222;26752;-77
2021/12/15 05:08:18;;;;;;;36.23;22.53;;;9.40;99.90;;;;;;647114;220;26527;-77
2021/12/15 05:10:47;;;;;;;38.40;22.03;;;9.50;99.90;;;;;;647230;222;26547;-77
2021/12/15 05:13:14;;;;;;;33.40;21.83;;;9.30;99.90;;;;;;647955;220;26528;-77
2021/12/15 05:15:41;;;;;;;35.10;22.87;;;9.30;99.90;;;;;;648687;221;26521;-77
2021/12/15 05:18:09;;;;;;;36.97;22.93;;;9.60;99.90;;;;;;648293;222;26591;-77
2021/12/15 05:20:38;;;;;;;34.90;23.87;;;9.50;99.90;;;;;;648205;222;26819;-76
2021/12/15 05:23:03;;;;;;;36.70;24.63;;;9.70;99.90;;;;;;647710;222;26498;-76
2021/12/15 05:25:30;;;;;;;40.53;25.67;;;9.90;99.90;;;;;;647896;221;26852;-76
2021/12/15 05:27:57;;;;;;;39.43;24.00;;;9.80;99.90;;;;;;648200;222;26494;-76
2021/12/15 05:30:25;;;;;;;37.67;24.17;;;9.70;99.90;;;;;;648309;221;26568;-76
2021/12/15 05:32:53;;;;;;;39.73;24.70;;;9.70;99.90;;;;;;647997;222;26535;-76
2021/12/15 05:35:23;;;;;;;36.20;25.07;;;9.70;99.90;;;;;;648014;221;26525;-76
2021/12/15 05:37:48;;;;;;;35.77;25.50;;;9.60;99.90;;;;;;647876;218;26527;-76
2021/12/15 05:40:16;;;;;;;36.13;24.40;;;9.40;99.90;;;;;;647568;222;26620;-76
2021/12/15 05:42:44;;;;;;;38.33;25.67;;;9.50;99.90;;;;;;647573;222;26600;-76
2021/12/15 05:45:12;;;;;;;38.83;23.97;;;9.40;99.90;;;;;;647613;218;26568;-76
2021/12/15 05:47:40;;;;;;;37.00;22.87;;;9.30;99.90;;;;;;647535;222;26574;-76
2021/12/15 05:50:07;;;;;;;39.63;23.80;;;9.30;99.90;;;;;;647229;222;26567;-76
2021/12/15 05:52:35;;;;;;;39.67;24.27;;;9.50;99.90;;;;;;647172;222;26524;-76
2021/12/15 05:55:04;;;;;;;37.80;24.30;;;9.70;99.90;;;;;;647243;222;26523;-76
2021/12/15 05:57:31;;;;;;;37.07;23.60;;;9.70;99.90;;;;;;647095;218;27192;-76
2021/12/15 05:59:59;;;;;;;37.90;23.20;;;10.00;99.90;;;;;;647215;222;26539;-76
2021/12/15 06:02:27;;;;;;;37.53;24.20;;;10.10;99.90;;;;;;647247;222;26528;-77
2021/12/15 06:04:55;;;;;;;38.23;24.17;;;10.10;99.90;;;;;;647274;222;26504;-76
2021/12/15 06:07:23;;;;;;;38.87;25.43;;;10.10;99.90;;;;;;647248;222;26515;-76
2021/12/15 06:09:50;;;;;;;37.03;23.90;;;10.10;99.90;;;;;;647157;222;26793;-76
2021/12/15 06:12:17;;;;;;;38.87;24.13;;;10.00;99.90;;;;;;647258;220;26515;-76
2021/12/15 06:14:44;;;;;;;36.80;23.60;;;10.20;99.90;;;;;;647256;222;26816;-76
2021/12/15 06:17:12;;;;;;;41.20;25.60;;;9.90;99.90;;;;;;647302;222;26499;-76
2021/12/15 06:19:39;;;;;;;38.27;24.57;;;9.50;99.90;;;;;;647224;222;26876;-76
2021/12/15 06:22:06;;;;;;;38.77;24.83;;;9.50;99.90;;;;;;647356;218;26505;-76
2021/12/15 06:24:33;;;;;;;39.97;24.77;;;9.60;99.90;;;;;;647962;220;26767;-76
2021/12/15 06:27:07;;;;;;;38.83;24.00;;;9.60;99.90;;;;;;648795;221;26483;-76
2021/12/15 06:29:29;;;;;;;36.60;23.23;;;9.70;99.90;;;;;;647810;222;26814;-76
2021/12/15 06:31:55;;;;;;;42.30;25.70;;;9.60;99.90;;;;;;648251;222;26624;-76
2021/12/15 06:34:22;;;;;;;38.23;24.33;;;9.80;99.90;;;;;;648019;221;26752;-76
2021/12/15 06:36:49;;;;;;;39.53;24.30;;;9.90;99.90;;;;;;648230;221;26571;-76
2021/12/15 06:39:16;;;;;;;36.93;22.73;;;10.00;99.90;;;;;;648084;221;26602;-76
2021/12/15 06:41:44;;;;;;;36.87;23.50;;;9.80;99.90;;;;;;647935;219;26514;-76
2021/12/15 06:44:13;;;;;;;35.07;23.30;;;9.90;99.90;;;;;;647575;221;26790;-76
2021/12/15 06:47:10;;;;;;;34.90;22.60;;;10.00;99.90;;;;;;647433;222;26578;-76
2021/12/15 06:59:35;;;;;;;32.90;21.43;;;10.20;99.90;;;;;;642112;222;26607;-77
2021/12/15 07:02:03;;;;;;;31.43;21.53;;;10.30;99.90;;;;;;647241;222;26520;-76
2021/12/15 07:04:31;;;;;;;30.17;21.53;;;10.20;99.90;;;;;;647249;220;26523;-76
2021/12/15 07:06:59;;;;;;;29.83;21.23;;;10.00;99.90;;;;;;647219;222;26518;-76
2021/12/15 07:09:27;;;;;;;28.63;20.57;;;10.00;99.90;;;;;;647165;220;26569;-76
2021/12/15 07:11:55;;;;;;;32.33;22.20;;;9.90;99.90;;;;;;647294;222;26532;-76
2021/12/15 07:14:22;;;;;;;30.97;20.53;;;9.90;99.90;;;;;;647218;222;26511;-76
2021/12/15 07:16:54;;;;;;;29.77;20.93;;;10.10;99.90;;;;;;647670;220;26548;-76
2021/12/15 07:19:30;;;;;;;33.93;22.47;;;10.00;99.90;;;;;;647347;222;26508;-76
2021/12/15 07:22:05;;;;;;;30.63;22.03;;;9.90;99.90;;;;;;646670;222;26492;-76
2021/12/15 07:24:24;;;;;;;30.33;21.57;;;9.80;99.90;;;;;;646866;222;26958;-76
2021/12/15 07:26:52;;;;;;;28.93;20.23;;;9.80;99.90;;;;;;647691;222;26530;-76
2021/12/15 07:29:19;;;;;;;28.83;20.90;;;9.80;99.90;;;;;;647285;222;26866;-76
2021/12/15 07:31:46;;;;;;;27.63;19.33;;;9.90;99.90;;;;;;647243;218;26525;-76
2021/12/15 07:34:13;;;;;;;28.83;20.70;;;9.80;99.90;;;;;;647157;222;26745;-76
2021/12/15 07:36:40;;;;;;;30.83;21.03;;;10.00;99.90;;;;;;648350;220;26467;-76
2021/12/15 07:39:10;;;;;;;28.17;20.60;;;10.10;99.90;;;;;;648669;222;26760;-76
2021/12/15 07:41:42;;;;;;;27.30;19.77;;;10.10;99.90;;;;;;648088;219;26598;-76
2021/12/15 07:44:03;;;;;;;27.93;20.00;;;10.20;99.90;;;;;;647688;222;26474;-76
2021/12/15 07:46:30;;;;;;;28.67;20.50;;;10.20;99.90;;;;;;647886;222;26514;-76
2021/12/15 07:48:57;;;;;;;29.63;20.60;;;10.30;99.90;;;;;;647473;222;26604;-76
2021/12/15 07:51:24;;;;;;;28.93;19.33;;;10.00;99.90;;;;;;640947;221;26771;-76
2021/12/15 07:53:51;;;;;;;28.30;19.60;;;9.90;99.90;;;;;;645532;222;26513;-76
2021/12/15 07:56:19;;;;;;;27.43;20.03;;;10.00;99.90;;;;;;643191;222;26736;-76
2021/12/15 07:58:46;;;;;;;28.93;19.80;;;9.80;99.90;;;;;;643554;222;26538;-76
2021/12/15 08:01:13;;;;;;;29.33;19.97;;;10.00;99.90;;;;;;648752;222;26740;-79
2021/12/15 08:03:40;;;;;;;27.03;19.97;;;9.80;99.90;;;;;;648772;222;26784;-84
2021/12/15 08:06:08;;;;;;;25.63;19.20;;;9.90;99.90;;;;;;644291;221;26581;-80
2021/12/15 08:08:35;;;;;;;28.20;19.87;;;10.20;99.90;;;;;;643521;222;26807;-79
2021/12/15 08:11:04;;;;;;;26.93;19.50;;;10.20;99.90;;;;;;644409;221;26510;-80
2021/12/15 08:13:31;;;;;;;27.93;19.27;;;10.00;99.90;;;;;;643363;221;26795;-80
2021/12/15 08:15:58;;;;;;;29.17;20.00;;;10.10;99.90;;;;;;644352;221;26831;-79
2021/12/15 08:18:26;;;;;;;24.80;17.33;;;10.40;99.90;;;;;;643964;220;26549;-80
2021/12/15 08:20:53;;;;;;;30.97;19.47;;;10.20;99.90;;;;;;640929;222;26565;-80
2021/12/15 08:23:21;;;;;;;25.57;18.10;;;10.70;99.90;;;;;;644587;222;26529;-80
2021/12/15 08:25:49;;;;;;;25.13;17.87;;;10.80;99.90;;;;;;646424;222;26523;-80
2021/12/15 08:28:16;;;;;;;26.13;18.80;;;10.80;99.90;;;;;;641555;222;26520;-80
2021/12/15 08:30:44;;;;;;;24.57;18.60;;;10.00;99.90;;;;;;642982;222;26540;-80
2021/12/15 08:33:12;;;;;;;25.63;17.80;;;10.00;99.90;;;;;;645415;221;26534;-80
2021/12/15 08:35:39;;;;;;;23.70;16.97;;;10.30;99.90;;;;;;644223;221;26545;-80
2021/12/15 08:38:07;;;;;;;25.40;17.97;;;10.20;99.90;;;;;;642782;220;26519;-80
2021/12/15 08:40:35;;;;;;;22.13;16.63;;;10.60;99.90;;;;;;646665;221;26584;-81
2021/12/15 08:43:03;;;;;;;24.97;17.67;;;10.80;99.90;;;;;;646577;221;26544;-80
2021/12/15 08:45:31;;;;;;;24.90;18.83;;;11.10;99.90;;;;;;642727;222;26513;-81
2021/12/15 08:47:58;;;;;;;21.47;16.10;;;11.10;99.90;;;;;;638193;223;26803;-80
2021/12/15 08:50:26;;;;;;;24.13;18.63;;;11.10;99.90;;;;;;640924;222;26621;-80
2021/12/15 08:52:54;;;;;;;25.70;18.43;;;11.00;99.90;;;;;;645704;221;26577;-80
2021/12/15 08:55:22;;;;;;;24.57;18.07;;;11.10;99.90;;;;;;648456;220;26611;-80
2021/12/15 08:57:53;;;;;;;26.20;18.67;;;11.20;99.90;;;;;;638277;221;26509;-80
2021/12/15 09:00:18;;;;;;;25.87;19.07;;;11.00;99.90;;;;;;638427;222;26561;-81
2021/12/15 09:02:46;;;;;;;25.37;18.60;;;10.80;99.90;;;;;;643907;222;26517;-81
2021/12/15 09:05:13;;;;;;;25.17;17.47;;;10.80;99.90;;;;;;637978;225;26729;-79
2021/12/15 09:07:44;;;;;;;24.33;18.60;;;10.40;99.90;;;;;;637741;225;26586;-80
2021/12/15 09:10:09;;;;;;;27.97;18.50;;;10.20;99.90;;;;;;637388;225;26868;-79
2021/12/15 09:12:36;;;;;;;24.60;18.63;;;10.30;99.90;;;;;;637639;225;26797;-78
2021/12/15 09:15:02;;;;;;;24.73;18.97;;;10.40;99.90;;;;;;637625;225;26781;-78
2021/12/15 09:17:30;;;;;;;25.57;18.17;;;10.50;99.90;;;;;;637690;225;26814;-78
2021/12/15 09:19:56;;;;;;;23.57;17.57;;;10.50;99.90;;;;;;643521;222;26784;-78
2021/12/15 09:22:24;;;;;;;24.93;18.87;;;10.70;99.90;;;;;;646039;222;26602;-78
2021/12/15 09:24:51;;;;;;;24.47;18.00;;;11.10;99.90;;;;;;643843;222;26529;-79
2021/12/15 09:27:19;;;;;;;24.17;18.17;;;11.10;99.90;;;;;;641101;222;26560;-79
2021/12/15 09:29:47;;;;;;;24.10;18.27;;;11.00;99.90;;;;;;643723;222;26555;-79
2021/12/15 09:32:14;;;;;;;24.87;18.50;;;11.00;99.90;;;;;;639352;221;26588;-78
2021/12/15 09:34:41;;;;;;;27.67;18.27;;;10.90;99.90;;;;;;637204;226;26570;-78
2021/12/15 09:37:08;;;;;;;25.70;18.50;;;10.80;99.90;;;;;;638719;222;26780;-78
2021/12/15 09:39:36;;;;;;;23.93;18.07;;;10.60;99.90;;;;;;637265;226;26593;-79
2021/12/15 09:42:04;;;;;;;24.47;18.03;;;10.70;99.90;;;;;;637313;226;26582;-78
2021/12/15 09:44:30;;;;;;;22.63;16.80;;;10.90;99.90;;;;;;637382;226;26570;-77
2021/12/15 09:47:45;;;;;;;23.03;17.50;;;11.30;99.90;;;;;;637303;226;26557;-77
2021/12/15 10:02:49;;;;;;;27.13;19.53;;;11.40;99.90;;;;;;639206;220;26519;-77
2021/12/15 10:05:24;;;;;;;25.83;18.90;;;11.40;99.90;;;;;;638172;224;26764;-77
2021/12/15 10:18:12;;;;;;;26.17;18.47;;;11.30;99.90;;;;;;637862;225;26846;-78
2021/12/15 10:20:37;;;;;;;26.70;19.03;;;11.30;99.90;;;;;;637406;225;26582;-77
2021/12/15 10:23:05;;;;;;;26.47;19.30;;;11.50;99.90;;;;;;637770;225;26524;-77
2021/12/15 10:25:33;;;;;;;26.50;18.87;;;11.40;99.90;;;;;;637680;225;26540;-77
2021/12/15 10:28:03;;;;;;;24.67;18.77;;;11.30;99.90;;;;;;637578;225;26556;-77
2021/12/15 10:30:31;;;;;;;28.37;17.83;;;11.30;99.90;;;;;;637511;225;26552;-77
2021/12/15 10:33:13;;;;;;;26.30;19.37;;;11.30;99.90;;;;;;637685;225;26520;-77
2021/12/15 10:35:42;;;;;;;25.33;18.73;;;10.90;99.90;;;;;;637477;225;26579;-77
2021/12/15 10:38:29;;;;;;;26.43;18.40;;;10.90;99.90;;;;;;637386;226;26787;-79
2021/12/15 10:40:58;;;;;;;23.03;18.07;;;10.80;99.90;;;;;;637421;226;26564;-77
2021/12/15 10:43:28;;;;;;;25.27;18.27;;;11.10;99.90;;;;;;637468;225;26544;-77
2021/12/15 10:45:55;;;;;;;22.80;17.83;;;11.10;99.90;;;;;;637345;226;26787;-75
2021/12/15 10:48:35;;;;;;;26.57;17.57;;;11.00;99.90;;;;;;637252;223;26527;-75
2021/12/15 10:50:51;;;;;;;25.27;17.63;;;11.00;99.90;;;;;;636482;226;26573;-75
2021/12/15 10:53:34;;;;;;;24.50;17.77;;;11.00;99.90;;;;;;637462;226;27210;-75
2021/12/15 10:56:02;;;;;;;21.90;16.40;;;10.80;99.90;;;;;;637343;226;26580;-78
2021/12/15 10:58:33;;;;;;;23.13;17.30;;;10.90;99.90;;;;;;636253;226;26578;-75
2021/12/15 11:01:00;;;;;;;28.23;17.77;;;10.90;99.90;;;;;;637331;226;26643;-76
2021/12/15 11:03:33;;;;;;;23.83;16.90;;;10.70;99.90;;;;;;637415;226;26570;-75
2021/12/15 11:06:00;;;;;;;20.37;16.30;;;10.80;99.90;;;;;;637374;222;26818;-75
2021/12/15 11:08:27;;;;;;;20.10;16.40;;;10.90;99.90;;;;;;635883;226;26560;-76
2021/12/15 11:10:55;;;;;;;20.93;16.53;;;10.90;99.90;;;;;;638122;223;26912;-76
2021/12/15 11:13:24;;;;;;;23.20;16.40;;;10.70;99.90;;;;;;638984;225;26561;-75
2021/12/15 11:15:49;;;;;;;25.63;16.33;;;10.70;99.90;;;;;;638387;225;26749;-78
2021/12/15 11:18:20;;;;;;;21.47;16.27;;;11.00;99.90;;;;;;638359;225;26563;-76
2021/12/15 11:20:49;;;;;;;20.60;15.30;;;11.00;99.90;;;;;;638026;225;26532;-78
2021/12/15 11:23:17;;;;;;;22.27;15.20;;;10.90;99.90;;;;;;637967;225;26771;-75
2021/12/15 11:25:51;;;;;;;19.80;14.80;;;10.90;99.90;;;;;;638011;225;26513;-76
2021/12/15 11:28:23;;;;;;;19.90;14.83;;;11.00;99.90;;;;;;638048;225;26545;-76
2021/12/15 11:30:56;;;;;;;21.10;15.27;;;11.10;99.90;;;;;;637655;225;27258;-76
2021/12/15 11:33:24;;;;;;;19.83;15.00;;;11.60;99.90;;;;;;637631;225;26563;-76
2021/12/15 11:35:55;;;;;;;17.60;14.17;;;11.40;99.90;;;;;;637615;225;26563;-76
2021/12/15 11:38:22;;;;;;;19.10;15.60;;;11.40;99.90;;;;;;637525;225;26794;-76
2021/12/15 11:41:06;;;;;;;19.53;14.13;;;11.10;99.90;;;;;;637427;225;26603;-77
2021/12/15 11:43:33;;;;;;;18.13;13.83;;;11.20;99.90;;;;;;635922;225;27042;-77
2021/12/15 11:46:00;;;;;;;18.30;14.77;;;11.10;99.90;;;;;;637385;225;26558;-76
2021/12/15 11:48:27;;;;;;;16.63;14.03;;;11.20;99.90;;;;;;637308;226;26566;-76
2021/12/15 11:50:55;;;;;;;20.47;13.73;;;11.10;99.90;;;;;;637463;226;26549;-76
2021/12/15 11:53:31;;;;;;;18.23;13.57;;;11.60;99.90;;;;;;637383;226;26565;-76
2021/12/15 11:56:10;;;;;;;16.57;13.53;;;11.60;99.90;;;;;;637571;226;26800;-76
2021/12/15 11:58:38;;;;;;;17.97;14.30;;;11.50;99.90;;;;;;637442;226;26578;-76
2021/12/15 12:01:08;;;;;;;17.13;13.30;;;11.70;99.90;;;;;;637521;226;26563;-76
2021/12/15 12:03:34;;;;;;;14.53;12.30;;;11.50;99.90;;;;;;637374;226;26518;-77
2021/12/15 12:06:02;;;;;;;13.30;11.47;;;11.30;99.90;;;;;;637544;226;26557;-76
2021/12/15 12:08:30;;;;;;;14.87;13.03;;;11.40;99.90;;;;;;637484;226;26588;-77
2021/12/15 12:11:04;;;;;;;16.13;11.97;;;11.90;99.90;;;;;;637304;220;26562;-77
2021/12/15 12:13:28;;;;;;;14.10;12.30;;;12.30;99.90;;;;;;636820;226;26560;-76
2021/12/15 12:15:57;;;;;;;13.27;11.87;;;12.30;99.90;;;;;;637143;226;26567;-76
2021/12/15 12:18:25;;;;;;;17.07;11.83;;;12.40;99.90;;;;;;637265;226;26559;-77
2021/12/15 12:20:54;;;;;;;13.70;11.93;;;12.00;99.90;;;;;;637371;226;26574;-77
2021/12/15 12:23:21;;;;;;;12.23;10.93;;;12.00;99.90;;;;;;638749;223;26575;-76
2021/12/15 12:25:48;;;;;;;15.17;12.07;;;12.10;99.90;;;;;;645307;221;26865;-76
2021/12/15 12:28:16;;;;;;;12.63;10.80;;;11.60;99.90;;;;;;649016;221;26582;-77
2021/12/15 12:30:44;;;;;;;13.50;11.30;;;11.60;99.90;;;;;;649119;217;26598;-76
2021/12/15 12:33:11;;;;;;;12.27;10.87;;;11.70;99.90;;;;;;649286;221;26766;-76
2021/12/15 12:35:40;;;;;;;12.80;10.93;;;11.90;99.90;;;;;;649384;221;26506;-76
2021/12/15 12:38:08;;;;;;;11.93;10.63;;;11.90;99.90;;;;;;649357;221;26549;-77
2021/12/15 12:40:36;;;;;;;13.07;11.33;;;12.00;99.90;;;;;;649216;221;26569;-76
2021/12/15 12:43:15;;;;;;;13.03;11.33;;;12.20;99.90;;;;;;648997;220;26718;-77
2021/12/15 12:45:43;;;;;;;12.30;10.23;;;12.30;99.90;;;;;;649097;222;26521;-76
2021/12/15 12:48:33;;;;;;;13.33;11.03;;;12.50;99.90;;;;;;648751;222;26496;-77
2021/12/15 13:01:24;;;;;;;14.77;11.07;;;11.80;99.90;;;;;;646596;221;26620;-77
2021/12/15 13:03:54;;;;;;;12.43;10.93;;;11.60;99.90;;;;;;648354;217;26573;-76
2021/12/15 13:06:19;;;;;;;13.23;10.77;;;11.70;99.90;;;;;;648033;221;26555;-77
2021/12/15 13:08:56;;;;;;;15.57;11.40;;;12.00;99.90;;;;;;648220;222;26594;-77
2021/12/15 13:11:33;;;;;;;15.07;11.80;;;12.00;99.90;;;;;;648192;221;26789;-76
2021/12/15 13:13:52;;;;;;;16.00;11.90;;;11.80;99.90;;;;;;647431;221;26851;-77
2021/12/15 13:16:24;;;;;;;13.83;11.67;;;11.70;99.90;;;;;;648138;221;26570;-77
2021/12/15 13:18:54;;;;;;;12.97;11.43;;;11.70;99.90;;;;;;648274;218;26833;-76
2021/12/15 13:21:22;;;;;;;13.27;11.50;;;11.70;99.90;;;;;;648185;221;26553;-77
2021/12/15 13:23:53;;;;;;;15.23;12.00;;;11.40;99.90;;;;;;648334;222;26575;-76
2021/12/15 13:29:18;;;;;;;13.90;11.20;;;11.40;99.90;;;;;;647959;222;26819;-76
2021/12/15 13:31:51;;;;;;;12.37;10.90;;;11.20;99.90;;;;;;648363;222;26490;-76
2021/12/15 13:34:18;;;;;;;14.90;11.40;;;11.50;99.90;;;;;;649092;219;26605;-76
2021/12/15 13:36:45;;;;;;;16.10;12.50;;;11.70;99.90;;;;;;647674;221;26546;-77
2021/12/15 13:39:13;;;;;;;13.50;11.37;;;11.30;99.90;;;;;;649466;221;26608;-77
2021/12/15 13:41:48;;;;;;;14.17;11.10;;;11.40;99.90;;;;;;649347;221;26522;-77
2021/12/15 13:44:33;;;;;;;22.87;11.80;;;11.40;99.90;;;;;;648591;221;26819;-76
2021/12/15 13:46:55;;;;;;;12.07;10.60;;;11.80;99.90;;;;;;648683;221;26787;-76
2021/12/15 13:49:23;;;;;;;15.13;11.20;;;11.80;99.90;;;;;;648903;217;26597;-78